Time;durP1;ratioP1;P1;durP2;ratioP2;P2;SDS_P1;SDS_P2;PMS_P1;PMS_P2;Temp;Humidity;BMP_temperature;BMP_pressure;BME280_temperature;BME280_humidity;BME280_pressure;Samples;Min_cycle;Max_cycle;Signal;HPM_P1;HPM_P2
2023/02/07 00:00:51;;;;;;;4.40;3.90;;;;;;;;;;5012763;28;20560;-47
2023/02/07 00:03:17;;;;;;;3.90;3.43;;;;;;;;;;5012870;28;20216;-47
2023/02/07 00:05:43;;;;;;;4.47;3.70;;;;;;;;;;5014842;28;20535;-46
2023/02/07 00:08:09;;;;;;;3.90;3.50;;;;;;;;;;5012605;28;20216;-46
2023/02/07 00:10:35;;;;;;;5.23;4.00;;;;;;;;;;5013822;28;20452;-46
2023/02/07 00:13:01;;;;;;;4.80;3.57;;;;;;;;;;5013734;28;20188;-46
2023/02/07 00:15:27;;;;;;;3.97;3.57;;;;;;;;;;4995765;28;20199;-46
2023/02/07 00:17:53;;;;;;;4.17;3.57;;;;;;;;;;5010385;28;20219;-47
2023/02/07 00:20:20;;;;;;;5.07;3.63;;;;;;;;;;4999611;28;20720;-47
2023/02/07 00:22:45;;;;;;;4.80;3.77;;;;;;;;;;5010633;28;20222;-47
2023/02/07 00:25:12;;;;;;;4.73;3.73;;;;;;;;;;5011466;28;20185;-47
2023/02/07 00:27:38;;;;;;;4.40;3.27;;;;;;;;;;5008874;28;20198;-46
2023/02/07 00:30:04;;;;;;;5.07;3.97;;;;;;;;;;5006090;28;20188;-46
2023/02/07 00:32:31;;;;;;;3.95;3.50;;;;;;;;;;5014465;28;20315;-46
2023/02/07 00:34:57;;;;;;;4.40;3.83;;;;;;;;;;5018462;28;20195;-47
2023/02/07 00:37:23;;;;;;;5.05;3.83;;;;;;;;;;5006496;28;20184;-47
2023/02/07 00:39:49;;;;;;;4.20;3.73;;;;;;;;;;5014307;28;20259;-47
2023/02/07 00:42:15;;;;;;;4.00;3.60;;;;;;;;;;5009192;28;20207;-47
2023/02/07 00:44:41;;;;;;;4.57;4.10;;;;;;;;;;5017718;28;20188;-47
2023/02/07 00:47:07;;;;;;;4.47;3.53;;;;;;;;;;5009286;28;20519;-47
2023/02/07 00:49:32;;;;;;;5.70;3.60;;;;;;;;;;5014012;28;20187;-47
2023/02/07 00:51:58;;;;;;;5.90;3.93;;;;;;;;;;5010463;28;20182;-47
2023/02/07 00:54:24;;;;;;;6.10;4.10;;;;;;;;;;5006394;28;20200;-47
2023/02/07 00:56:50;;;;;;;4.47;4.03;;;;;;;;;;5008893;28;20392;-47
2023/02/07 00:59:16;;;;;;;5.20;4.60;;;;;;;;;;5018265;28;20185;-47
2023/02/07 01:01:42;;;;;;;4.77;3.77;;;;;;;;;;5012654;28;20204;-47
2023/02/07 01:04:08;;;;;;;4.27;3.83;;;;;;;;;;5018733;28;20270;-47
2023/02/07 01:06:35;;;;;;;4.67;4.13;;;;;;;;;;5008561;28;20181;-47
2023/02/07 01:09:02;;;;;;;4.30;3.80;;;;;;;;;;5011064;28;20181;-47
2023/02/07 01:11:28;;;;;;;4.33;3.93;;;;;;;;;;5011584;28;20180;-47
2023/02/07 01:13:54;;;;;;;4.83;3.77;;;;;;;;;;5011397;28;20192;-47
2023/02/07 01:16:23;;;;;;;4.63;3.97;;;;;;;;;;5016597;28;20231;-47
2023/02/07 01:18:49;;;;;;;4.60;4.00;;;;;;;;;;5010577;28;20230;-47
2023/02/07 01:21:16;;;;;;;5.53;4.20;;;;;;;;;;5015607;28;20479;-47
2023/02/07 01:23:42;;;;;;;3.93;3.57;;;;;;;;;;5008495;28;20472;-47
2023/02/07 01:26:07;;;;;;;4.97;4.13;;;;;;;;;;5014059;28;20183;-47
2023/02/07 01:28:33;;;;;;;5.07;4.00;;;;;;;;;;5014680;28;20184;-47
2023/02/07 01:30:59;;;;;;;4.20;3.67;;;;;;;;;;5016500;28;20181;-47
2023/02/07 01:33:25;;;;;;;4.67;4.23;;;;;;;;;;5014126;28;20192;-47
2023/02/07 01:35:51;;;;;;;4.83;4.10;;;;;;;;;;5018871;28;20187;-47
2023/02/07 01:38:17;;;;;;;5.53;4.10;;;;;;;;;;5016847;28;21547;-47
2023/02/07 01:40:43;;;;;;;4.33;3.60;;;;;;;;;;5014172;28;20193;-47
2023/02/07 01:43:16;;;;;;;4.73;3.97;;;;;;;;;;5016778;28;20208;-47
2023/02/07 01:45:43;;;;;;;4.83;4.00;;;;;;;;;;5014315;28;20582;-47
2023/02/07 01:48:12;;;;;;;4.33;3.93;;;;;;;;;;5009572;28;20212;-47
2023/02/07 01:50:39;;;;;;;4.80;3.87;;;;;;;;;;5013848;28;20185;-47
2023/02/07 01:53:05;;;;;;;4.67;3.67;;;;;;;;;;5016540;28;20458;-47
2023/02/07 01:55:33;;;;;;;5.33;4.10;;;;;;;;;;5009804;28;20193;-47
2023/02/07 01:57:59;;;;;;;3.97;3.57;;;;;;;;;;5014952;28;20501;-47
2023/02/07 02:00:25;;;;;;;5.10;4.10;;;;;;;;;;5009784;28;20177;-47
2023/02/07 02:02:51;;;;;;;4.77;3.60;;;;;;;;;;5013081;28;20223;-47
2023/02/07 02:05:18;;;;;;;4.37;3.97;;;;;;;;;;5015781;28;20188;-47
2023/02/07 02:07:44;;;;;;;4.67;4.07;;;;;;;;;;5009953;28;20307;-47
2023/02/07 02:10:14;;;;;;;4.80;3.90;;;;;;;;;;5014317;28;20279;-47
2023/02/07 02:12:49;;;;;;;4.33;3.80;;;;;;;;;;5011509;28;20203;-47
2023/02/07 02:15:30;;;;;;;4.30;3.70;;;;;;;;;;5005705;28;20192;-47
2023/02/07 02:18:14;;;;;;;4.50;3.60;;;;;;;;;;5009758;28;20327;-47
2023/02/07 02:21:07;;;;;;;3.60;3.30;;;;;;;;;;4998255;28;20216;-47
2023/02/07 02:23:52;;;;;;;4.27;3.70;;;;;;;;;;5005722;28;20288;-47
2023/02/07 02:26:36;;;;;;;4.63;3.83;;;;;;;;;;5007324;28;20579;-47
2023/02/07 02:29:20;;;;;;;4.15;3.60;;;;;;;;;;5015033;28;20704;-47
2023/02/07 02:31:49;;;;;;;4.27;3.80;;;;;;;;;;5016218;28;20295;-47
2023/02/07 02:34:22;;;;;;;4.47;3.70;;;;;;;;;;5019716;28;20226;-47
2023/02/07 02:37:01;;;;;;;4.00;3.57;;;;;;;;;;5015617;28;20188;-47
2023/02/07 02:39:31;;;;;;;4.13;3.73;;;;;;;;;;5012496;28;20204;-47
2023/02/07 02:42:15;;;;;;;4.30;3.90;;;;;;;;;;5014745;28;20185;-47
2023/02/07 02:44:43;;;;;;;4.17;3.63;;;;;;;;;;5010252;28;20203;-47
2023/02/07 02:47:10;;;;;;;4.23;3.80;;;;;;;;;;5006057;28;20192;-47
2023/02/07 02:49:37;;;;;;;3.80;3.40;;;;;;;;;;5013048;28;20219;-47
2023/02/07 02:52:03;;;;;;;4.60;3.67;;;;;;;;;;5014151;28;20184;-47
2023/02/07 02:54:31;;;;;;;4.60;3.50;;;;;;;;;;5015940;28;20196;-47
2023/02/07 02:57:20;;;;;;;4.83;3.83;;;;;;;;;;5015179;28;20231;-47
2023/02/07 03:00:08;;;;;;;3.73;3.37;;;;;;;;;;5015680;28;20548;-47
2023/02/07 03:02:53;;;;;;;4.17;3.47;;;;;;;;;;5007209;28;20216;-47
2023/02/07 03:05:32;;;;;;;4.33;3.80;;;;;;;;;;5011994;28;20230;-47
2023/02/07 03:08:04;;;;;;;4.77;3.80;;;;;;;;;;5006313;28;20188;-47
2023/02/07 03:10:39;;;;;;;4.13;3.63;;;;;;;;;;5008156;28;20180;-47
2023/02/07 03:13:14;;;;;;;4.07;3.47;;;;;;;;;;5007283;28;20200;-47
2023/02/07 03:15:51;;;;;;;4.17;3.33;;;;;;;;;;5013198;28;20192;-47
2023/02/07 03:18:28;;;;;;;4.87;3.70;;;;;;;;;;5012841;28;20446;-47
2023/02/07 03:20:58;;;;;;;4.33;3.70;;;;;;;;;;5011174;28;20195;-47
2023/02/07 03:23:25;;;;;;;4.07;3.50;;;;;;;;;;5009826;28;20236;-47
2023/02/07 03:25:51;;;;;;;4.03;3.23;;;;;;;;;;5010711;28;20189;-47
2023/02/07 03:28:19;;;;;;;3.87;3.10;;;;;;;;;;5010772;28;20197;-47
2023/02/07 03:30:49;;;;;;;4.30;3.90;;;;;;;;;;5014021;28;20184;-47
2023/02/07 03:33:15;;;;;;;4.50;3.40;;;;;;;;;;5011637;28;20224;-47
2023/02/07 03:35:47;;;;;;;3.37;3.07;;;;;;;;;;5022065;28;20192;-46
2023/02/07 03:38:13;;;;;;;4.50;3.80;;;;;;;;;;5013929;28;20185;-47
2023/02/07 03:40:42;;;;;;;4.10;3.70;;;;;;;;;;5008290;28;20188;-47
2023/02/07 03:43:10;;;;;;;3.90;3.27;;;;;;;;;;5011037;28;20267;-47
2023/02/07 03:45:36;;;;;;;3.73;3.37;;;;;;;;;;5014958;28;20638;-47
2023/02/07 03:48:02;;;;;;;3.33;3.03;;;;;;;;;;5008365;28;20185;-47
2023/02/07 03:50:28;;;;;;;4.13;3.40;;;;;;;;;;5013795;28;20457;-47
2023/02/07 03:52:54;;;;;;;4.50;3.37;;;;;;;;;;5009114;28;20564;-47
2023/02/07 03:55:20;;;;;;;3.90;3.40;;;;;;;;;;5013287;28;20193;-46
2023/02/07 03:57:46;;;;;;;3.60;3.30;;;;;;;;;;5009553;28;20468;-46
2023/02/07 04:00:12;;;;;;;4.33;3.60;;;;;;;;;;5005401;28;20669;-46
2023/02/07 04:02:38;;;;;;;4.90;3.43;;;;;;;;;;5006721;28;20246;-47
2023/02/07 04:05:04;;;;;;;3.70;3.30;;;;;;;;;;5003414;28;20196;-47
2023/02/07 04:07:30;;;;;;;4.03;3.03;;;;;;;;;;5009099;28;20180;-47
2023/02/07 04:09:56;;;;;;;3.07;2.77;;;;;;;;;;5011812;28;20524;-47
2023/02/07 04:12:22;;;;;;;4.67;3.00;;;;;;;;;;5008615;28;20459;-46
2023/02/07 04:14:48;;;;;;;4.80;3.50;;;;;;;;;;5006100;28;20265;-47
2023/02/07 04:17:14;;;;;;;3.70;3.40;;;;;;;;;;5003671;28;20342;-48
2023/02/07 04:19:40;;;;;;;5.10;3.17;;;;;;;;;;5007479;28;20188;-47
2023/02/07 04:22:05;;;;;;;4.27;3.33;;;;;;;;;;5007402;28;20186;-47
2023/02/07 04:24:31;;;;;;;3.47;3.07;;;;;;;;;;5009739;28;20244;-47
2023/02/07 04:26:58;;;;;;;5.47;3.23;;;;;;;;;;5007438;28;20561;-47
2023/02/07 04:29:24;;;;;;;4.43;3.33;;;;;;;;;;5013174;28;20180;-47
2023/02/07 04:31:50;;;;;;;4.93;3.40;;;;;;;;;;5014344;28;20548;-47
2023/02/07 04:34:16;;;;;;;5.50;3.47;;;;;;;;;;5014081;28;20200;-47
2023/02/07 04:36:42;;;;;;;5.83;3.60;;;;;;;;;;5020704;28;20199;-48
2023/02/07 04:39:08;;;;;;;4.68;3.40;;;;;;;;;;5013592;28;20473;-48
2023/02/07 04:41:34;;;;;;;6.70;3.63;;;;;;;;;;5009445;28;20194;-48
2023/02/07 04:44:00;;;;;;;6.18;3.20;;;;;;;;;;5010279;28;20215;-47
2023/02/07 04:46:27;;;;;;;6.20;3.85;;;;;;;;;;5012109;28;20184;-47
2023/02/07 04:48:53;;;;;;;7.97;3.83;;;;;;;;;;5006320;28;20184;-47
2023/02/07 04:51:19;;;;;;;5.43;3.30;;;;;;;;;;5011595;28;20192;-48
2023/02/07 04:53:45;;;;;;;6.70;3.78;;;;;;;;;;5014250;28;20188;-48
2023/02/07 04:56:11;;;;;;;7.82;4.43;;;;;;;;;;5012683;28;20485;-48
2023/02/07 04:58:37;;;;;;;5.85;3.63;;;;;;;;;;5010080;28;20195;-48
2023/02/07 05:01:02;;;;;;;4.65;3.40;;;;;;;;;;5014133;28;20587;-48
2023/02/07 05:03:28;;;;;;;6.03;3.10;;;;;;;;;;5015760;28;20220;-48
2023/02/07 05:05:55;;;;;;;9.37;3.63;;;;;;;;;;5018493;28;20184;-48
2023/02/07 05:08:21;;;;;;;8.35;3.70;;;;;;;;;;5011103;28;20607;-48
2023/02/07 05:10:47;;;;;;;4.55;3.05;;;;;;;;;;5014310;28;20184;-47
2023/02/07 05:13:13;;;;;;;7.93;4.00;;;;;;;;;;5007170;28;20255;-48
2023/02/07 05:15:39;;;;;;;6.65;3.28;;;;;;;;;;5012589;28;20614;-48
2023/02/07 05:18:04;;;;;;;6.40;3.40;;;;;;;;;;5004995;28;20216;-48
2023/02/07 05:20:30;;;;;;;5.30;3.47;;;;;;;;;;5002585;28;20568;-48
2023/02/07 05:22:56;;;;;;;4.53;2.90;;;;;;;;;;5010662;28;20481;-48
2023/02/07 05:25:22;;;;;;;6.00;3.50;;;;;;;;;;5009267;28;20199;-48
2023/02/07 05:27:48;;;;;;;7.05;3.40;;;;;;;;;;5011160;28;20203;-48
2023/02/07 05:30:14;;;;;;;5.45;3.55;;;;;;;;;;5014422;28;20467;-48
2023/02/07 05:35:25;;;;;;;5.93;3.55;;;;;;;;;;5023735;28;20199;-48
2023/02/07 05:37:51;;;;;;;9.05;3.50;;;;;;;;;;5018324;28;20460;-48
2023/02/07 05:40:16;;;;;;;4.18;2.90;;;;;;;;;;5015350;28;20193;-48
2023/02/07 05:42:42;;;;;;;4.75;3.28;;;;;;;;;;5016914;28;20212;-48
2023/02/07 05:45:08;;;;;;;5.22;3.20;;;;;;;;;;5012011;28;20455;-48
2023/02/07 05:47:34;;;;;;;4.63;3.33;;;;;;;;;;5016416;28;20177;-48
2023/02/07 05:50:00;;;;;;;5.05;3.00;;;;;;;;;;5016637;28;20187;-48
2023/02/07 05:52:26;;;;;;;4.15;2.78;;;;;;;;;;5016443;28;20189;-48
2023/02/07 05:54:52;;;;;;;4.63;2.88;;;;;;;;;;5011643;28;20498;-48
2023/02/07 05:57:18;;;;;;;4.65;3.20;;;;;;;;;;5014970;28;20191;-48
2023/02/07 05:59:44;;;;;;;4.30;3.03;;;;;;;;;;5012965;28;20200;-48
2023/02/07 06:02:10;;;;;;;3.28;2.85;;;;;;;;;;5015970;28;20184;-48
2023/02/07 06:04:36;;;;;;;4.82;3.45;;;;;;;;;;5014321;28;20223;-48
2023/02/07 06:07:02;;;;;;;5.05;2.97;;;;;;;;;;5019783;28;20196;-48
2023/02/07 06:09:28;;;;;;;5.03;3.08;;;;;;;;;;5012642;28;20458;-48
2023/02/07 06:11:54;;;;;;;3.80;2.97;;;;;;;;;;5011792;28;20173;-48
2023/02/07 06:14:21;;;;;;;5.15;3.50;;;;;;;;;;5006763;28;20596;-48
2023/02/07 06:16:47;;;;;;;4.97;3.00;;;;;;;;;;5013222;28;20191;-48
2023/02/07 06:19:13;;;;;;;5.32;3.00;;;;;;;;;;5010394;28;20185;-48
2023/02/07 06:21:39;;;;;;;3.97;2.97;;;;;;;;;;5014652;28;20191;-48
2023/02/07 06:24:05;;;;;;;4.75;3.15;;;;;;;;;;5007879;28;20205;-48
2023/02/07 06:26:31;;;;;;;4.10;2.90;;;;;;;;;;5014951;28;20223;-48
2023/02/07 06:28:57;;;;;;;7.13;3.42;;;;;;;;;;5010834;28;20184;-48
2023/02/07 06:31:23;;;;;;;4.22;3.30;;;;;;;;;;5013846;28;20188;-48
2023/02/07 06:33:48;;;;;;;6.80;3.05;;;;;;;;;;5018496;28;20400;-48
2023/02/07 06:36:14;;;;;;;3.67;2.85;;;;;;;;;;5022167;28;20282;-48
2023/02/07 06:38:40;;;;;;;4.32;3.00;;;;;;;;;;5016202;28;20188;-48
2023/02/07 06:41:09;;;;;;;4.35;3.42;;;;;;;;;;5015113;28;20258;-48
2023/02/07 06:43:35;;;;;;;4.40;3.38;;;;;;;;;;5016797;28;20207;-47
2023/02/07 06:46:01;;;;;;;3.80;3.10;;;;;;;;;;5010878;28;20267;-47
2023/02/07 06:48:27;;;;;;;5.32;3.20;;;;;;;;;;5008149;28;20260;-47
2023/02/07 06:50:53;;;;;;;3.88;3.13;;;;;;;;;;5015211;28;20188;-47
2023/02/07 06:53:19;;;;;;;3.33;2.72;;;;;;;;;;5013097;28;20206;-47
2023/02/07 06:55:45;;;;;;;3.75;2.88;;;;;;;;;;5013630;28;20180;-47
2023/02/07 06:58:11;;;;;;;3.78;3.38;;;;;;;;;;5008361;28;20216;-48
2023/02/07 07:00:37;;;;;;;4.28;3.25;;;;;;;;;;5008407;28;20202;-48
2023/02/07 07:03:03;;;;;;;4.80;3.38;;;;;;;;;;5008705;28;20495;-48
2023/02/07 07:05:29;;;;;;;4.43;3.20;;;;;;;;;;5011051;28;20204;-47
2023/02/07 07:07:56;;;;;;;3.67;3.05;;;;;;;;;;5015502;28;20615;-48
2023/02/07 07:10:22;;;;;;;3.88;3.47;;;;;;;;;;4999401;28;20247;-48
2023/02/07 07:12:48;;;;;;;7.18;3.65;;;;;;;;;;5003462;28;20191;-48
2023/02/07 07:15:14;;;;;;;5.10;3.28;;;;;;;;;;5004049;28;20461;-48
2023/02/07 07:17:40;;;;;;;3.92;3.53;;;;;;;;;;5005192;28;20197;-48
2023/02/07 07:20:06;;;;;;;4.25;3.20;;;;;;;;;;5000889;28;20188;-48
2023/02/07 07:22:32;;;;;;;4.47;3.47;;;;;;;;;;5002496;28;20666;-48
2023/02/07 07:24:58;;;;;;;3.90;3.50;;;;;;;;;;5006173;28;20196;-48
2023/02/07 07:27:24;;;;;;;4.22;3.05;;;;;;;;;;5002630;28;20195;-47
2023/02/07 07:29:50;;;;;;;4.15;3.40;;;;;;;;;;5004570;28;20274;-47
2023/02/07 07:32:16;;;;;;;4.53;3.80;;;;;;;;;;5003263;28;20211;-47
2023/02/07 07:34:42;;;;;;;4.97;3.60;;;;;;;;;;5003930;28;20279;-47
2023/02/07 07:37:08;;;;;;;3.70;3.28;;;;;;;;;;5008636;28;20287;-47
2023/02/07 07:39:34;;;;;;;4.45;3.67;;;;;;;;;;5000737;28;20195;-47
2023/02/07 07:42:00;;;;;;;3.80;3.22;;;;;;;;;;5004853;28;20239;-48
2023/02/07 07:44:25;;;;;;;4.03;3.47;;;;;;;;;;5007097;28;20430;-48
2023/02/07 07:46:51;;;;;;;4.40;3.67;;;;;;;;;;5010617;28;20227;-48
2023/02/07 07:49:17;;;;;;;5.60;3.88;;;;;;;;;;5006540;28;20192;-48
2023/02/07 07:51:43;;;;;;;3.95;3.30;;;;;;;;;;5000754;28;20184;-48
2023/02/07 07:54:09;;;;;;;5.97;4.03;;;;;;;;;;5013164;28;20207;-48
2023/02/07 07:56:35;;;;;;;4.75;3.92;;;;;;;;;;5002564;28;20583;-48
2023/02/07 07:59:01;;;;;;;4.70;3.90;;;;;;;;;;5008415;28;20455;-48
2023/02/07 08:01:27;;;;;;;4.45;3.70;;;;;;;;;;5008935;28;20192;-48
2023/02/07 08:03:53;;;;;;;5.20;3.92;;;;;;;;;;5007777;28;20215;-48
2023/02/07 08:06:19;;;;;;;4.28;3.88;;;;;;;;;;5017488;28;20231;-48
2023/02/07 08:08:46;;;;;;;5.25;3.80;;;;;;;;;;5001878;28;20188;-48
2023/02/07 08:11:12;;;;;;;4.55;4.15;;;;;;;;;;4999892;28;20180;-48
2023/02/07 08:13:38;;;;;;;5.18;4.20;;;;;;;;;;5001908;28;20192;-48
2023/02/07 08:16:07;;;;;;;3.95;3.55;;;;;;;;;;5012187;28;20180;-48
2023/02/07 08:18:33;;;;;;;4.13;3.70;;;;;;;;;;5000859;28;20195;-48
2023/02/07 08:20:59;;;;;;;4.50;3.92;;;;;;;;;;5003104;28;20189;-48
2023/02/07 08:23:25;;;;;;;4.60;4.07;;;;;;;;;;5001148;28;20279;-48
2023/02/07 08:25:51;;;;;;;5.10;4.60;;;;;;;;;;5009234;28;20261;-48
2023/02/07 08:28:17;;;;;;;4.60;4.10;;;;;;;;;;4998137;28;20362;-48
2023/02/07 08:30:46;;;;;;;5.40;4.47;;;;;;;;;;5003014;28;20203;-48
2023/02/07 08:33:12;;;;;;;5.63;4.55;;;;;;;;;;4999382;28;20192;-48
2023/02/07 08:35:38;;;;;;;5.10;4.32;;;;;;;;;;5003596;28;20230;-48
2023/02/07 08:38:04;;;;;;;5.47;4.35;;;;;;;;;;5008817;28;20192;-48
2023/02/07 08:40:30;;;;;;;5.43;4.40;;;;;;;;;;5010911;28;20218;-48
2023/02/07 08:42:55;;;;;;;6.07;4.88;;;;;;;;;;5009770;28;20626;-48
2023/02/07 08:45:21;;;;;;;6.57;5.25;;;;;;;;;;5013220;28;20196;-48
2023/02/07 08:47:47;;;;;;;4.78;4.22;;;;;;;;;;5009009;28;20204;-48
2023/02/07 08:50:14;;;;;;;5.70;4.57;;;;;;;;;;5003562;28;20177;-48
2023/02/07 08:52:40;;;;;;;5.72;4.18;;;;;;;;;;5003866;28;20185;-48
2023/02/07 08:55:07;;;;;;;6.97;4.72;;;;;;;;;;5002630;28;20180;-48
2023/02/07 08:57:33;;;;;;;5.78;4.85;;;;;;;;;;5006170;28;20185;-48
2023/02/07 08:59:59;;;;;;;6.00;4.97;;;;;;;;;;5004011;28;20181;-48
2023/02/07 09:02:26;;;;;;;5.90;4.43;;;;;;;;;;5012695;28;20191;-46
2023/02/07 09:04:52;;;;;;;5.22;4.57;;;;;;;;;;5010020;28;20225;-46
2023/02/07 09:07:18;;;;;;;4.90;4.35;;;;;;;;;;5016262;28;20208;-47
2023/02/07 09:09:44;;;;;;;5.18;4.50;;;;;;;;;;5001766;28;20181;-46
2023/02/07 09:12:11;;;;;;;6.05;4.90;;;;;;;;;;5007812;28;20181;-46
2023/02/07 09:14:37;;;;;;;7.63;5.13;;;;;;;;;;5009926;28;20267;-47
2023/02/07 09:17:03;;;;;;;6.45;4.95;;;;;;;;;;5012195;28;20196;-47
2023/02/07 09:19:29;;;;;;;5.20;4.20;;;;;;;;;;5005703;28;20193;-46
2023/02/07 09:21:55;;;;;;;4.97;4.32;;;;;;;;;;5009228;28;20184;-46
2023/02/07 09:24:21;;;;;;;5.90;4.80;;;;;;;;;;5011987;28;20564;-47
2023/02/07 09:26:47;;;;;;;6.03;4.60;;;;;;;;;;5011375;28;20196;-47
2023/02/07 09:29:14;;;;;;;5.18;4.35;;;;;;;;;;5007093;28;20554;-47
2023/02/07 09:31:40;;;;;;;5.15;4.32;;;;;;;;;;5013768;28;20227;-47
2023/02/07 09:34:06;;;;;;;5.22;4.40;;;;;;;;;;5013079;28;20188;-47
2023/02/07 09:36:32;;;;;;;6.03;4.45;;;;;;;;;;5016030;28;20263;-47
2023/02/07 09:38:59;;;;;;;5.05;4.38;;;;;;;;;;5007890;28;20180;-47
2023/02/07 09:41:34;;;;;;;4.80;4.22;;;;;;;;;;5008866;28;20548;-47
2023/02/07 09:44:13;;;;;;;4.80;4.32;;;;;;;;;;5003311;28;20595;-47
2023/02/07 09:46:45;;;;;;;6.63;4.57;;;;;;;;;;5007519;28;20358;-47
2023/02/07 09:49:27;;;;;;;5.00;4.50;;;;;;;;;;5010467;28;20180;-47
2023/02/07 09:51:55;;;;;;;5.10;4.32;;;;;;;;;;5010549;28;20181;-47
2023/02/07 09:54:37;;;;;;;5.03;4.30;;;;;;;;;;5009571;28;20231;-47
2023/02/07 09:57:06;;;;;;;4.57;3.95;;;;;;;;;;5009086;28;20192;-47
2023/02/07 09:59:38;;;;;;;5.85;4.50;;;;;;;;;;5014546;28;20286;-47
2023/02/07 10:02:13;;;;;;;4.38;3.97;;;;;;;;;;5016294;28;20185;-47
2023/02/07 10:04:41;;;;;;;5.10;3.88;;;;;;;;;;5018909;28;20207;-47
2023/02/07 10:07:07;;;;;;;4.57;4.15;;;;;;;;;;5011274;28;20263;-47
2023/02/07 10:09:37;;;;;;;4.93;4.43;;;;;;;;;;5009627;28;20181;-47
2023/02/07 10:12:12;;;;;;;5.68;4.35;;;;;;;;;;5016967;28;20263;-47
2023/02/07 10:14:57;;;;;;;5.28;4.25;;;;;;;;;;5000641;28;20188;-47
2023/02/07 10:17:32;;;;;;;4.22;3.80;;;;;;;;;;5001324;28;20200;-47
2023/02/07 10:20:16;;;;;;;4.70;4.20;;;;;;;;;;5002451;28;20196;-47
2023/02/07 10:22:53;;;;;;;5.32;4.32;;;;;;;;;;5013791;28;20201;-47
2023/02/07 10:25:22;;;;;;;4.97;3.90;;;;;;;;;;5009000;28;20199;-47
2023/02/07 10:28:08;;;;;;;4.22;3.83;;;;;;;;;;5011350;28;20569;-47
2023/02/07 10:30:36;;;;;;;5.47;4.45;;;;;;;;;;5009904;28;20264;-47
2023/02/07 10:33:18;;;;;;;4.88;4.25;;;;;;;;;;5015528;28;20477;-47
2023/02/07 10:35:45;;;;;;;5.15;4.28;;;;;;;;;;5019603;28;20187;-47
2023/02/07 10:38:20;;;;;;;5.40;3.97;;;;;;;;;;5011709;28;20227;-47
2023/02/07 10:40:53;;;;;;;4.70;4.15;;;;;;;;;;5007625;28;20184;-47
2023/02/07 10:43:27;;;;;;;4.82;3.90;;;;;;;;;;5007901;28;20596;-47
2023/02/07 10:45:56;;;;;;;4.85;4.20;;;;;;;;;;5010454;28;20219;-47
2023/02/07 10:48:22;;;;;;;5.43;4.10;;;;;;;;;;5010740;28;20247;-47
2023/02/07 10:50:47;;;;;;;4.93;3.95;;;;;;;;;;5013614;28;20562;-47
2023/02/07 10:53:33;;;;;;;4.97;4.20;;;;;;;;;;5014255;28;20218;-47
2023/02/07 10:55:59;;;;;;;4.43;3.80;;;;;;;;;;5002863;28;20195;-47
2023/02/07 10:58:37;;;;;;;4.45;4.00;;;;;;;;;;5000905;28;20269;-47
2023/02/07 11:01:03;;;;;;;5.30;4.60;;;;;;;;;;5005023;28;20276;-47
2023/02/07 11:03:29;;;;;;;4.78;4.30;;;;;;;;;;5012253;28;20290;-47
2023/02/07 11:06:06;;;;;;;5.80;4.35;;;;;;;;;;5017847;28;20183;-47
2023/02/07 11:08:33;;;;;;;5.00;4.53;;;;;;;;;;5005611;28;20213;-47
2023/02/07 11:11:16;;;;;;;5.43;4.32;;;;;;;;;;5012328;28;20508;-47
2023/02/07 11:13:47;;;;;;;4.78;4.28;;;;;;;;;;5007255;28;20192;-47
2023/02/07 11:16:15;;;;;;;4.20;3.80;;;;;;;;;;5006768;28;20209;-47
2023/02/07 11:18:43;;;;;;;4.38;3.97;;;;;;;;;;5009016;28;20200;-47
2023/02/07 11:21:28;;;;;;;5.00;4.00;;;;;;;;;;5011799;28;20270;-47
2023/02/07 11:23:55;;;;;;;5.70;4.35;;;;;;;;;;5012868;28;20647;-47
2023/02/07 11:26:22;;;;;;;7.30;4.30;;;;;;;;;;5002074;28;20188;-47
2023/02/07 11:28:52;;;;;;;4.53;4.13;;;;;;;;;;5007300;28;20185;-47
2023/02/07 11:31:19;;;;;;;4.43;4.03;;;;;;;;;;5011880;28;20188;-48
2023/02/07 11:33:45;;;;;;;4.80;4.25;;;;;;;;;;5007747;28;20188;-47
2023/02/07 11:36:22;;;;;;;5.80;4.35;;;;;;;;;;5014769;28;20193;-47
2023/02/07 11:38:50;;;;;;;4.70;4.20;;;;;;;;;;5007198;28;20194;-47
2023/02/07 11:41:27;;;;;;;4.68;3.92;;;;;;;;;;5008746;28;20835;-47
2023/02/07 11:44:03;;;;;;;5.13;4.40;;;;;;;;;;5002836;28;20215;-47
2023/02/07 11:46:34;;;;;;;6.20;4.38;;;;;;;;;;5005084;28;20209;-49
2023/02/07 11:49:00;;;;;;;5.45;4.18;;;;;;;;;;5005322;28;20180;-47
2023/02/07 11:51:27;;;;;;;4.20;3.80;;;;;;;;;;5010936;28;20634;-47
2023/02/07 11:53:55;;;;;;;4.18;3.78;;;;;;;;;;5010395;28;20187;-47
2023/02/07 11:56:24;;;;;;;6.50;4.28;;;;;;;;;;5013556;28;20271;-47
2023/02/07 11:58:51;;;;;;;4.88;4.28;;;;;;;;;;5013457;28;20479;-47
2023/02/07 12:01:18;;;;;;;5.15;3.95;;;;;;;;;;5011725;28;20184;-47
2023/02/07 12:03:51;;;;;;;5.28;4.22;;;;;;;;;;5000909;28;20204;-47
2023/02/07 12:06:18;;;;;;;5.07;4.25;;;;;;;;;;5023151;28;20176;-48
2023/02/07 12:08:45;;;;;;;5.90;4.10;;;;;;;;;;5011266;28;20575;-47
2023/02/07 12:11:15;;;;;;;7.70;4.38;;;;;;;;;;5007372;28;20295;-47
2023/02/07 12:13:47;;;;;;;5.20;4.20;;;;;;;;;;5001768;28;20180;-47
2023/02/07 12:16:17;;;;;;;4.82;4.32;;;;;;;;;;4997929;28;20533;-47
2023/02/07 12:18:46;;;;;;;6.80;4.78;;;;;;;;;;4999275;28;20191;-47
2023/02/07 12:21:24;;;;;;;7.88;4.28;;;;;;;;;;5013438;28;20610;-47
2023/02/07 12:23:56;;;;;;;6.57;4.22;;;;;;;;;;5011172;28;20212;-47
2023/02/07 12:26:24;;;;;;;5.80;4.47;;;;;;;;;;5001058;28;20195;-47
2023/02/07 12:28:53;;;;;;;4.65;4.25;;;;;;;;;;5005435;28;20548;-47
2023/02/07 12:31:37;;;;;;;5.38;4.07;;;;;;;;;;5007162;28;20184;-47
2023/02/07 12:34:09;;;;;;;4.78;4.28;;;;;;;;;;4999876;28;20184;-47
2023/02/07 12:36:41;;;;;;;4.63;3.95;;;;;;;;;;5000295;28;20203;-47
2023/02/07 12:39:26;;;;;;;4.95;3.88;;;;;;;;;;5007637;28;20243;-47
2023/02/07 12:41:55;;;;;;;6.78;4.35;;;;;;;;;;5010234;28;20212;-47
2023/02/07 12:44:28;;;;;;;4.40;3.90;;;;;;;;;;5012856;28;20208;-47
2023/02/07 12:47:05;;;;;;;5.93;4.32;;;;;;;;;;5018220;28;20192;-47
2023/02/07 12:49:39;;;;;;;4.70;3.97;;;;;;;;;;5008345;28;20255;-47
2023/02/07 12:52:18;;;;;;;4.70;3.70;;;;;;;;;;5006552;28;20196;-48
2023/02/07 12:54:55;;;;;;;5.40;4.20;;;;;;;;;;5009673;28;20188;-47
2023/02/07 12:57:31;;;;;;;4.65;3.90;;;;;;;;;;5011153;28;20185;-47
2023/02/07 13:00:26;;;;;;;4.90;3.97;;;;;;;;;;5011275;28;20184;-47
2023/02/07 13:03:09;;;;;;;4.72;3.65;;;;;;;;;;4968332;28;20202;-47
2023/02/07 13:05:38;;;;;;;5.03;3.90;;;;;;;;;;5003609;28;20183;-47
2023/02/07 13:08:23;;;;;;;5.70;4.20;;;;;;;;;;5009125;28;20177;-47
2023/02/07 13:11:02;;;;;;;5.35;3.40;;;;;;;;;;5009347;28;20243;-47
2023/02/07 13:13:35;;;;;;;6.55;4.10;;;;;;;;;;5008803;28;20596;-47
2023/02/07 13:16:13;;;;;;;5.05;3.83;;;;;;;;;;5007035;28;20280;-47
2023/02/07 13:18:53;;;;;;;5.32;3.88;;;;;;;;;;5008095;28;20193;-47
2023/02/07 13:21:22;;;;;;;7.03;3.80;;;;;;;;;;5003328;28;20274;-47
2023/02/07 13:23:48;;;;;;;6.10;3.65;;;;;;;;;;5009066;28;20196;-47
2023/02/07 13:26:18;;;;;;;5.00;3.67;;;;;;;;;;4997126;28;20614;-47
2023/02/07 13:28:46;;;;;;;4.47;3.85;;;;;;;;;;5002837;28;20203;-47
2023/02/07 13:31:19;;;;;;;4.43;3.78;;;;;;;;;;5002233;28;20185;-47
2023/02/07 13:33:47;;;;;;;4.88;4.07;;;;;;;;;;5008559;28;20191;-47
2023/02/07 13:36:24;;;;;;;4.55;3.70;;;;;;;;;;5011407;28;20622;-47
2023/02/07 13:38:53;;;;;;;4.25;3.85;;;;;;;;;;5000128;28;20241;-48
2023/02/07 13:41:25;;;;;;;4.22;3.83;;;;;;;;;;5005194;28;20487;-48
2023/02/07 13:44:05;;;;;;;6.28;3.67;;;;;;;;;;5011109;28;20223;-47
2023/02/07 13:46:54;;;;;;;4.00;3.50;;;;;;;;;;5012861;28;20180;-47
2023/02/07 13:49:53;;;;;;;5.28;3.75;;;;;;;;;;5005016;28;20199;-47
2023/02/07 13:52:26;;;;;;;4.95;4.05;;;;;;;;;;4993283;28;20668;-47
2023/02/07 13:55:02;;;;;;;4.50;3.50;;;;;;;;;;5013671;28;20428;-47
2023/02/07 14:00:18;;;;;;;5.05;3.65;;;;;;;;;;5008732;28;20203;-47
2023/02/07 14:02:50;;;;;;;4.35;3.95;;;;;;;;;;5012684;28;20185;-48
2023/02/07 14:05:20;;;;;;;5.60;3.20;;;;;;;;;;5003624;28;20197;-47
2023/02/07 14:08:12;;;;;;;4.20;3.80;;;;;;;;;;5012578;28;20495;-47
2023/02/07 14:10:51;;;;;;;4.20;3.40;;;;;;;;;;5014193;28;20568;-47
2023/02/07 14:13:26;;;;;;;4.15;3.72;;;;;;;;;;5012287;28;20189;-47
2023/02/07 14:15:55;;;;;;;3.83;3.30;;;;;;;;;;5013177;28;20188;-47
2023/02/07 14:18:35;;;;;;;4.43;3.17;;;;;;;;;;5005690;28;20193;-48
2023/02/07 14:21:03;;;;;;;4.00;3.60;;;;;;;;;;5011193;28;20431;-47
2023/02/07 14:23:48;;;;;;;3.75;3.35;;;;;;;;;;5017374;28;20212;-47
2023/02/07 14:26:32;;;;;;;3.45;3.15;;;;;;;;;;5009696;28;20238;-47
2023/02/07 14:29:16;;;;;;;3.83;3.42;;;;;;;;;;5010019;28;20180;-47
2023/02/07 14:31:47;;;;;;;3.67;3.38;;;;;;;;;;5014577;28;20556;-47
2023/02/07 14:34:14;;;;;;;4.68;3.65;;;;;;;;;;5002011;28;20188;-47
2023/02/07 14:36:40;;;;;;;5.05;3.30;;;;;;;;;;5021941;28;20180;-47
2023/02/07 14:39:18;;;;;;;3.72;3.25;;;;;;;;;;5012897;28;20548;-47
2023/02/07 14:41:45;;;;;;;3.50;3.20;;;;;;;;;;5006106;28;20606;-47
2023/02/07 14:44:26;;;;;;;3.47;3.17;;;;;;;;;;5007474;28;20219;-47
2023/02/07 14:46:54;;;;;;;3.80;3.38;;;;;;;;;;5013811;28;20180;-47
2023/02/07 14:49:23;;;;;;;3.63;3.20;;;;;;;;;;5014259;28;20451;-47
2023/02/07 14:51:57;;;;;;;4.03;3.42;;;;;;;;;;5014121;28;20258;-47
2023/02/07 14:54:38;;;;;;;3.97;3.55;;;;;;;;;;5011245;28;20416;-47
2023/02/07 14:57:24;;;;;;;4.53;3.55;;;;;;;;;;5015507;28;20781;-47
2023/02/07 15:00:09;;;;;;;4.40;3.60;;;;;;;;;;5009070;28;20568;-47
2023/02/07 15:02:39;;;;;;;3.90;3.50;;;;;;;;;;5007883;28;20196;-47